sensor_id;sensor_type;location;lat;lon;timestamp;pressure;altitude;pressure_sealevel;temperature;humidity
21240;BME280;10778;48.962;9.018;2023-10-13T00:01:54;99141.44;;;14.31;100.00
21240;BME280;10778;48.962;9.018;2023-10-13T00:04:21;99135.63;;;14.27;100.00
21240;BME280;10778;48.962;9.018;2023-10-13T00:06:56;99135.09;;;14.23;100.00
21240;BME280;10778;48.962;9.018;2023-10-13T00:09:28;99134.56;;;14.12;100.00
21240;BME280;10778;48.962;9.018;2023-10-13T00:12:04;99135.03;;;14.07;100.00
21240;BME280;10778;48.962;9.018;2023-10-13T00:14:34;99130.41;;;14.01;100.00
21240;BME280;10778;48.962;9.018;2023-10-13T00:17:02;99138.16;;;13.94;100.00
21240;BME280;10778;48.962;9.018;2023-10-13T00:19:33;99133.31;;;13.89;100.00
21240;BME280;10778;48.962;9.018;2023-10-13T00:22:14;99123.91;;;13.87;100.00
21240;BME280;10778;48.962;9.018;2023-10-13T00:24:43;99119.91;;;13.83;100.00
21240;BME280;10778;48.962;9.018;2023-10-13T00:27:14;99130.13;;;13.77;100.00
21240;BME280;10778;48.962;9.018;2023-10-13T00:30:00;99126.78;;;13.67;100.00
21240;BME280;10778;48.962;9.018;2023-10-13T00:32:48;99136.47;;;13.58;100.00
21240;BME280;10778;48.962;9.018;2023-10-13T00:35:22;99128.44;;;13.68;100.00
21240;BME280;10778;48.962;9.018;2023-10-13T00:37:56;99133.63;;;13.51;100.00
21240;BME280;10778;48.962;9.018;2023-10-13T00:40:24;99138.72;;;13.45;100.00
21240;BME280;10778;48.962;9.018;2023-10-13T00:43:00;99123.44;;;13.38;100.00
21240;BME280;10778;48.962;9.018;2023-10-13T00:45:50;99134.47;;;13.34;100.00
21240;BME280;10778;48.962;9.018;2023-10-13T00:48:37;99116.75;;;13.44;100.00
21240;BME280;10778;48.962;9.018;2023-10-13T00:51:12;99126.41;;;13.35;100.00
21240;BME280;10778;48.962;9.018;2023-10-13T00:54:08;99127.38;;;13.34;100.00
21240;BME280;10778;48.962;9.018;2023-10-13T00:56:38;99127.75;;;13.40;100.00
21240;BME280;10778;48.962;9.018;2023-10-13T00:59:10;99138.88;;;13.25;100.00
21240;BME280;10778;48.962;9.018;2023-10-13T01:01:39;99129.25;;;13.16;100.00
21240;BME280;10778;48.962;9.018;2023-10-13T01:04:10;99133.19;;;13.12;100.00
21240;BME280;10778;48.962;9.018;2023-10-13T01:06:39;99127.50;;;13.06;100.00
21240;BME280;10778;48.962;9.018;2023-10-13T01:09:07;99129.66;;;13.03;100.00
21240;BME280;10778;48.962;9.018;2023-10-13T01:11:46;99131.88;;;13.16;100.00
21240;BME280;10778;48.962;9.018;2023-10-13T01:14:14;99129.25;;;12.98;100.00
21240;BME280;10778;48.962;9.018;2023-10-13T01:16:45;99131.53;;;13.11;100.00
21240;BME280;10778;48.962;9.018;2023-10-13T01:19:15;99129.78;;;13.01;100.00
21240;BME280;10778;48.962;9.018;2023-10-13T01:21:51;99119.00;;;12.94;100.00
21240;BME280;10778;48.962;9.018;2023-10-13T01:24:30;99124.59;;;12.91;100.00
21240;BME280;10778;48.962;9.018;2023-10-13T01:27:03;99111.19;;;12.85;100.00
21240;BME280;10778;48.962;9.018;2023-10-13T01:29:40;99107.63;;;12.76;100.00
21240;BME280;10778;48.962;9.018;2023-10-13T01:32:06;99108.63;;;12.75;100.00
21240;BME280;10778;48.962;9.018;2023-10-13T01:34:35;99102.81;;;12.71;100.00
21240;BME280;10778;48.962;9.018;2023-10-13T01:37:03;99101.47;;;12.67;100.00
21240;BME280;10778;48.962;9.018;2023-10-13T01:39:31;99101.41;;;12.59;100.00
21240;BME280;10778;48.962;9.018;2023-10-13T01:41:57;99092.09;;;12.55;100.00
21240;BME280;10778;48.962;9.018;2023-10-13T01:44:25;99100.31;;;12.51;100.00
21240;BME280;10778;48.962;9.018;2023-10-13T01:46:53;99096.25;;;12.39;100.00
21240;BME280;10778;48.962;9.018;2023-10-13T01:49:19;99106.97;;;12.37;100.00
21240;BME280;10778;48.962;9.018;2023-10-13T01:51:48;99094.59;;;12.38;100.00
21240;BME280;10778;48.962;9.018;2023-10-13T01:54:14;99088.81;;;12.34;100.00
21240;BME280;10778;48.962;9.018;2023-10-13T01:56:41;99087.41;;;12.30;100.00
21240;BME280;10778;48.962;9.018;2023-10-13T01:59:11;99091.50;;;12.25;100.00
21240;BME280;10778;48.962;9.018;2023-10-13T02:01:38;99086.81;;;12.18;100.00
21240;BME280;10778;48.962;9.018;2023-10-13T02:04:05;99087.84;;;12.07;100.00
21240;BME280;10778;48.962;9.018;2023-10-13T02:06:34;99081.59;;;12.08;100.00
21240;BME280;10778;48.962;9.018;2023-10-13T02:09:01;99085.34;;;12.06;100.00
21240;BME280;10778;48.962;9.018;2023-10-13T02:11:39;99078.41;;;12.05;100.00
21240;BME280;10778;48.962;9.018;2023-10-13T02:14:06;99084.84;;;12.02;100.00
21240;BME280;10778;48.962;9.018;2023-10-13T02:16:32;99076.22;;;12.00;100.00
21240;BME280;10778;48.962;9.018;2023-10-13T02:18:58;99069.72;;;11.94;100.00
21240;BME280;10778;48.962;9.018;2023-10-13T02:21:31;99066.41;;;11.92;100.00
21240;BME280;10778;48.962;9.018;2023-10-13T02:23:58;99067.22;;;11.93;100.00
21240;BME280;10778;48.962;9.018;2023-10-13T02:26:30;99065.63;;;11.82;100.00
21240;BME280;10778;48.962;9.018;2023-10-13T02:29:01;99064.31;;;11.68;100.00
21240;BME280;10778;48.962;9.018;2023-10-13T02:31:37;99063.47;;;11.67;100.00
21240;BME280;10778;48.962;9.018;2023-10-13T02:34:04;99063.91;;;11.63;100.00
21240;BME280;10778;48.962;9.018;2023-10-13T02:36:35;99063.09;;;11.62;100.00
21240;BME280;10778;48.962;9.018;2023-10-13T02:39:13;99057.13;;;11.60;100.00
21240;BME280;10778;48.962;9.018;2023-10-13T02:41:40;99059.09;;;11.58;100.00
21240;BME280;10778;48.962;9.018;2023-10-13T02:44:07;99050.09;;;11.51;100.00
21240;BME280;10778;48.962;9.018;2023-10-13T02:46:36;99050.25;;;11.49;100.00
21240;BME280;10778;48.962;9.018;2023-10-13T02:49:06;99042.28;;;11.59;100.00
21240;BME280;10778;48.962;9.018;2023-10-13T02:51:39;99050.09;;;11.51;100.00
21240;BME280;10778;48.962;9.018;2023-10-13T02:54:09;99043.88;;;11.42;100.00
21240;BME280;10778;48.962;9.018;2023-10-13T02:56:37;99039.34;;;11.34;100.00
21240;BME280;10778;48.962;9.018;2023-10-13T02:59:04;99042.41;;;11.30;100.00
21240;BME280;10778;48.962;9.018;2023-10-13T03:01:35;99041.44;;;11.21;100.00
21240;BME280;10778;48.962;9.018;2023-10-13T03:04:02;99041.06;;;11.16;100.00
21240;BME280;10778;48.962;9.018;2023-10-13T03:06:29;99042.03;;;11.15;100.00
21240;BME280;10778;48.962;9.018;2023-10-13T03:09:03;99037.06;;;11.12;100.00
21240;BME280;10778;48.962;9.018;2023-10-13T03:11:45;99032.78;;;11.10;100.00
21240;BME280;10778;48.962;9.018;2023-10-13T03:14:16;99035.53;;;11.09;100.00
21240;BME280;10778;48.962;9.018;2023-10-13T03:16:55;99032.78;;;11.10;100.00
21240;BME280;10778;48.962;9.018;2023-10-13T03:19:21;99028.63;;;11.08;100.00
21240;BME280;10778;48.962;9.018;2023-10-13T03:21:47;99025.97;;;11.08;100.00
21240;BME280;10778;48.962;9.018;2023-10-13T03:24:30;99035.00;;;10.95;100.00
21240;BME280;10778;48.962;9.018;2023-10-13T03:27:02;99032.38;;;10.95;100.00
21240;BME280;10778;48.962;9.018;2023-10-13T03:29:39;99021.16;;;10.93;100.00
21240;BME280;10778;48.962;9.018;2023-10-13T03:32:14;99035.75;;;10.88;100.00
21240;BME280;10778;48.962;9.018;2023-10-13T03:34:45;99034.91;;;10.77;100.00
21240;BME280;10778;48.962;9.018;2023-10-13T03:37:26;99029.25;;;10.82;100.00
21240;BME280;10778;48.962;9.018;2023-10-13T03:40:05;99036.03;;;10.75;100.00
21240;BME280;10778;48.962;9.018;2023-10-13T03:42:32;99029.66;;;10.67;100.00
21240;BME280;10778;48.962;9.018;2023-10-13T03:44:58;99030.78;;;10.65;100.00
21240;BME280;10778;48.962;9.018;2023-10-13T03:47:24;99035.50;;;10.61;100.00
21240;BME280;10778;48.962;9.018;2023-10-13T03:49:57;99030.66;;;10.57;100.00
21240;BME280;10778;48.962;9.018;2023-10-13T03:52:42;99034.38;;;10.54;100.00
21240;BME280;10778;48.962;9.018;2023-10-13T03:55:08;99031.34;;;10.49;100.00
21240;BME280;10778;48.962;9.018;2023-10-13T03:57:41;99034.09;;;10.47;100.00
21240;BME280;10778;48.962;9.018;2023-10-13T04:00:08;99033.41;;;10.45;100.00
21240;BME280;10778;48.962;9.018;2023-10-13T04:02:38;99037.16;;;10.43;100.00
21240;BME280;10778;48.962;9.018;2023-10-13T04:05:04;99033.72;;;10.42;100.00
21240;BME280;10778;48.962;9.018;2023-10-13T04:07:35;99030.78;;;10.45;100.00
21240;BME280;10778;48.962;9.018;2023-10-13T04:10:27;99029.13;;;10.44;100.00
21240;BME280;10778;48.962;9.018;2023-10-13T04:13:11;99034.78;;;10.39;100.00
21240;BME280;10778;48.962;9.018;2023-10-13T04:15:56;99031.19;;;10.41;100.00
21240;BME280;10778;48.962;9.018;2023-10-13T04:18:40;99033.97;;;10.39;100.00
21240;BME280;10778;48.962;9.018;2023-10-13T04:21:21;99016.22;;;10.31;100.00
21240;BME280;10778;48.962;9.018;2023-10-13T04:24:09;99029.38;;;10.31;100.00
21240;BME280;10778;48.962;9.018;2023-10-13T04:26:51;99024.94;;;10.22;100.00
21240;BME280;10778;48.962;9.018;2023-10-13T04:29:36;99019.97;;;10.19;100.00
21240;BME280;10778;48.962;9.018;2023-10-13T04:32:12;99024.81;;;10.14;100.00
21240;BME280;10778;48.962;9.018;2023-10-13T04:34:41;99015.66;;;10.08;100.00
21240;BME280;10778;48.962;9.018;2023-10-13T04:37:12;99014.41;;;10.02;100.00
21240;BME280;10778;48.962;9.018;2023-10-13T04:39:58;99007.38;;;10.03;100.00
21240;BME280;10778;48.962;9.018;2023-10-13T04:42:37;98992.69;;;10.00;100.00
21240;BME280;10778;48.962;9.018;2023-10-13T04:45:19;98997.09;;;10.00;100.00
21240;BME280;10778;48.962;9.018;2023-10-13T04:47:59;99002.25;;;10.01;100.00
21240;BME280;10778;48.962;9.018;2023-10-13T04:50:46;98997.66;;;10.03;100.00
21240;BME280;10778;48.962;9.018;2023-10-13T04:53:17;98994.22;;;10.03;100.00
21240;BME280;10778;48.962;9.018;2023-10-13T04:55:59;98995.31;;;10.00;100.00
21240;BME280;10778;48.962;9.018;2023-10-13T04:58:34;98989.66;;;9.95;100.00
21240;BME280;10778;48.962;9.018;2023-10-13T05:01:00;98993.50;;;9.91;100.00
21240;BME280;10778;48.962;9.018;2023-10-13T05:03:45;98988.41;;;9.89;100.00
21240;BME280;10778;48.962;9.018;2023-10-13T05:06:29;98984.25;;;9.96;100.00
21240;BME280;10778;48.962;9.018;2023-10-13T05:09:11;98983.00;;;9.91;100.00
21240;BME280;10778;48.962;9.018;2023-10-13T05:11:56;98985.50;;;9.92;100.00
21240;BME280;10778;48.962;9.018;2023-10-13T05:14:40;98979.25;;;9.84;100.00
21240;BME280;10778;48.962;9.018;2023-10-13T05:17:25;98978.41;;;9.73;100.00
21240;BME280;10778;48.962;9.018;2023-10-13T05:20:09;98977.16;;;9.67;100.00
21240;BME280;10778;48.962;9.018;2023-10-13T05:23:05;98979.06;;;9.65;100.00
21240;BME280;10778;48.962;9.018;2023-10-13T05:25:49;98973.81;;;9.65;100.00
21240;BME280;10778;48.962;9.018;2023-10-13T05:28:33;98976.03;;;9.60;100.00
21240;BME280;10778;48.962;9.018;2023-10-13T05:31:35;98979.06;;;9.56;100.00
21240;BME280;10778;48.962;9.018;2023-10-13T05:34:19;98981.97;;;9.62;100.00
21240;BME280;10778;48.962;9.018;2023-10-13T05:37:03;98978.94;;;9.67;100.00
21240;BME280;10778;48.962;9.018;2023-10-13T05:39:48;98978.84;;;9.68;100.00
21240;BME280;10778;48.962;9.018;2023-10-13T05:42:32;98979.25;;;9.74;100.00
21240;BME280;10778;48.962;9.018;2023-10-13T05:45:17;98969.31;;;9.77;100.00
21240;BME280;10778;48.962;9.018;2023-10-13T05:47:43;98973.41;;;9.70;100.00
21240;BME280;10778;48.962;9.018;2023-10-13T05:50:10;98981.31;;;9.70;100.00
21240;BME280;10778;48.962;9.018;2023-10-13T05:52:55;98979.06;;;9.65;100.00
21240;BME280;10778;48.962;9.018;2023-10-13T05:55:25;98979.78;;;9.67;100.00
21240;BME280;10778;48.962;9.018;2023-10-13T05:58:10;98988.66;;;9.76;100.00
21240;BME280;10778;48.962;9.018;2023-10-13T06:00:55;98987.69;;;9.77;100.00
21240;BME280;10778;48.962;9.018;2023-10-13T06:03:40;98991.44;;;9.85;100.00
21240;BME280;10778;48.962;9.018;2023-10-13T06:06:24;98981.78;;;9.95;100.00
21240;BME280;10778;48.962;9.018;2023-10-13T06:09:09;98984.94;;;10.08;100.00
21240;BME280;10778;48.962;9.018;2023-10-13T06:11:54;98981.22;;;10.21;100.00
21240;BME280;10778;48.962;9.018;2023-10-13T06:14:39;98987.03;;;10.34;100.00
21240;BME280;10778;48.962;9.018;2023-10-13T06:17:23;98991.03;;;10.29;100.00
21240;BME280;10778;48.962;9.018;2023-10-13T06:20:08;98988.03;;;10.43;100.00
21240;BME280;10778;48.962;9.018;2023-10-13T06:22:53;98977.31;;;10.74;100.00
21240;BME280;10778;48.962;9.018;2023-10-13T06:25:38;98985.31;;;10.82;100.00
21240;BME280;10778;48.962;9.018;2023-10-13T06:28:23;98987.25;;;10.80;100.00
21240;BME280;10778;48.962;9.018;2023-10-13T06:31:08;98978.25;;;10.83;100.00
21240;BME280;10778;48.962;9.018;2023-10-13T06:33:38;98984.47;;;10.92;100.00
21240;BME280;10778;48.962;9.018;2023-10-13T06:36:11;98988.91;;;10.91;100.00
21240;BME280;10778;48.962;9.018;2023-10-13T06:38:37;98976.84;;;10.99;100.00
21240;BME280;10778;48.962;9.018;2023-10-13T06:41:04;98975.91;;;11.18;100.00
21240;BME280;10778;48.962;9.018;2023-10-13T06:43:37;98978.75;;;11.34;100.00
21240;BME280;10778;48.962;9.018;2023-10-13T06:46:07;98974.97;;;11.47;100.00
21240;BME280;10778;48.962;9.018;2023-10-13T06:48:42;98972.25;;;11.29;100.00
21240;BME280;10778;48.962;9.018;2023-10-13T06:51:09;98970.47;;;11.75;100.00
21240;BME280;10778;48.962;9.018;2023-10-13T06:53:48;98972.00;;;11.96;100.00
21240;BME280;10778;48.962;9.018;2023-10-13T06:56:17;98976.53;;;12.40;100.00
21240;BME280;10778;48.962;9.018;2023-10-13T06:58:54;98969.59;;;13.53;100.00
21240;BME280;10778;48.962;9.018;2023-10-13T07:01:30;98965.44;;;14.35;96.46
21240;BME280;10778;48.962;9.018;2023-10-13T07:04:06;98962.88;;;15.08;90.20
21240;BME280;10778;48.962;9.018;2023-10-13T07:06:40;98960.53;;;16.46;81.90
21240;BME280;10778;48.962;9.018;2023-10-13T07:09:10;98961.09;;;17.25;76.78
21240;BME280;10778;48.962;9.018;2023-10-13T07:11:58;98950.69;;;17.82;75.69
21240;BME280;10778;48.962;9.018;2023-10-13T07:14:32;98961.81;;;17.19;78.29
21240;BME280;10778;48.962;9.018;2023-10-13T07:17:06;98954.28;;;18.11;75.26
21240;BME280;10778;48.962;9.018;2023-10-13T07:19:34;98946.31;;;20.01;67.55
21240;BME280;10778;48.962;9.018;2023-10-13T07:22:01;98940.72;;;20.77;64.97
21240;BME280;10778;48.962;9.018;2023-10-13T07:24:47;98946.69;;;20.92;63.63
21240;BME280;10778;48.962;9.018;2023-10-13T07:27:16;98947.25;;;21.08;63.48
21240;BME280;10778;48.962;9.018;2023-10-13T07:29:53;98937.75;;;21.71;61.40
21240;BME280;10778;48.962;9.018;2023-10-13T07:32:32;98931.50;;;21.84;62.07
21240;BME280;10778;48.962;9.018;2023-10-13T07:34:59;98935.56;;;21.54;62.30
21240;BME280;10778;48.962;9.018;2023-10-13T07:37:37;98927.53;;;21.02;63.28
21240;BME280;10778;48.962;9.018;2023-10-13T07:40:10;98925.69;;;21.87;62.00
21240;BME280;10778;48.962;9.018;2023-10-13T07:42:52;98925.03;;;22.24;59.86
21240;BME280;10778;48.962;9.018;2023-10-13T07:45:18;98920.75;;;22.67;58.58
21240;BME280;10778;48.962;9.018;2023-10-13T07:47:47;98916.56;;;22.52;58.38
21240;BME280;10778;48.962;9.018;2023-10-13T07:50:15;98923.53;;;22.28;60.08
21240;BME280;10778;48.962;9.018;2023-10-13T07:52:51;98911.72;;;22.80;59.19
21240;BME280;10778;48.962;9.018;2023-10-13T07:55:45;98913.28;;;23.25;59.38
21240;BME280;10778;48.962;9.018;2023-10-13T07:58:13;98903.50;;;23.80;56.63
21240;BME280;10778;48.962;9.018;2023-10-13T08:00:39;98905.28;;;23.55;58.00
21240;BME280;10778;48.962;9.018;2023-10-13T08:03:11;98904.63;;;24.26;56.94
21240;BME280;10778;48.962;9.018;2023-10-13T08:05:41;98901.16;;;25.14;54.96
21240;BME280;10778;48.962;9.018;2023-10-13T08:08:37;98891.50;;;25.31;53.81
21240;BME280;10778;48.962;9.018;2023-10-13T08:11:08;98884.22;;;26.23;51.94
21240;BME280;10778;48.962;9.018;2023-10-13T08:13:49;98891.78;;;25.17;55.04
21240;BME280;10778;48.962;9.018;2023-10-13T08:16:20;98881.56;;;24.66;55.14
21240;BME280;10778;48.962;9.018;2023-10-13T08:18:57;98885.19;;;25.25;54.02
21240;BME280;10778;48.962;9.018;2023-10-13T08:21:27;98884.41;;;24.48;55.93
21240;BME280;10778;48.962;9.018;2023-10-13T08:23:57;98885.78;;;24.38;55.91
21240;BME280;10778;48.962;9.018;2023-10-13T08:26:27;98871.28;;;26.08;52.88
21240;BME280;10778;48.962;9.018;2023-10-13T08:29:03;98874.94;;;25.39;54.63
21240;BME280;10778;48.962;9.018;2023-10-13T08:31:42;98877.81;;;25.61;54.34
21240;BME280;10778;48.962;9.018;2023-10-13T08:34:08;98869.34;;;25.87;53.06
21240;BME280;10778;48.962;9.018;2023-10-13T08:36:41;98859.78;;;26.13;53.72
21240;BME280;10778;48.962;9.018;2023-10-13T08:39:07;98851.59;;;27.59;51.19
21240;BME280;10778;48.962;9.018;2023-10-13T08:42:08;98855.53;;;27.51;49.98
21240;BME280;10778;48.962;9.018;2023-10-13T08:44:44;98854.84;;;27.61;49.88
21240;BME280;10778;48.962;9.018;2023-10-13T08:47:18;98851.63;;;27.96;48.29
21240;BME280;10778;48.962;9.018;2023-10-13T08:49:50;98841.94;;;28.97;45.00
21240;BME280;10778;48.962;9.018;2023-10-13T08:52:19;98839.31;;;28.64;46.42
21240;BME280;10778;48.962;9.018;2023-10-13T08:55:18;98838.25;;;29.45;38.13
21240;BME280;10778;48.962;9.018;2023-10-13T08:58:23;98829.84;;;30.08;37.62
21240;BME280;10778;48.962;9.018;2023-10-13T09:00:55;98832.56;;;29.46;37.79
21240;BME280;10778;48.962;9.018;2023-10-13T09:03:23;98830.28;;;28.96;39.81
21240;BME280;10778;48.962;9.018;2023-10-13T09:05:54;98829.34;;;28.75;37.76
21240;BME280;10778;48.962;9.018;2023-10-13T09:08:33;98826.59;;;29.70;37.39
21240;BME280;10778;48.962;9.018;2023-10-13T09:11:10;98815.22;;;29.78;37.31
21240;BME280;10778;48.962;9.018;2023-10-13T09:13:38;98809.34;;;30.58;36.67
21240;BME280;10778;48.962;9.018;2023-10-13T09:16:13;98808.31;;;31.09;35.58
21240;BME280;10778;48.962;9.018;2023-10-13T09:18:48;98810.88;;;31.35;35.36
21240;BME280;10778;48.962;9.018;2023-10-13T09:21:16;98812.31;;;30.61;36.01
21240;BME280;10778;48.962;9.018;2023-10-13T09:23:55;98803.28;;;30.87;34.43
21240;BME280;10778;48.962;9.018;2023-10-13T09:26:41;98806.88;;;30.67;35.06
21240;BME280;10778;48.962;9.018;2023-10-13T09:29:20;98798.66;;;30.01;35.71
21240;BME280;10778;48.962;9.018;2023-10-13T09:31:47;98798.88;;;30.25;36.97
21240;BME280;10778;48.962;9.018;2023-10-13T09:34:25;98795.47;;;30.75;35.27
21240;BME280;10778;48.962;9.018;2023-10-13T09:36:59;98800.53;;;29.33;36.40
21240;BME280;10778;48.962;9.018;2023-10-13T09:39:25;98791.88;;;30.08;35.84
21240;BME280;10778;48.962;9.018;2023-10-13T09:42:17;98786.59;;;30.43;35.35
21240;BME280;10778;48.962;9.018;2023-10-13T09:44:47;98782.59;;;30.91;34.35
21240;BME280;10778;48.962;9.018;2023-10-13T09:47:21;98776.38;;;30.85;35.18
21240;BME280;10778;48.962;9.018;2023-10-13T09:49:59;98778.69;;;30.57;36.12
21240;BME280;10778;48.962;9.018;2023-10-13T09:52:30;98766.78;;;30.98;35.09
21240;BME280;10778;48.962;9.018;2023-10-13T09:55:11;98780.47;;;30.12;36.63
21240;BME280;10778;48.962;9.018;2023-10-13T09:57:43;98764.03;;;30.53;35.29
21240;BME280;10778;48.962;9.018;2023-10-13T10:00:12;98768.44;;;30.33;35.19
21240;BME280;10778;48.962;9.018;2023-10-13T10:02:58;98754.09;;;30.88;34.67
21240;BME280;10778;48.962;9.018;2023-10-13T10:05:26;98753.09;;;29.77;36.37
21240;BME280;10778;48.962;9.018;2023-10-13T10:07:56;98751.19;;;29.93;35.58
21240;BME280;10778;48.962;9.018;2023-10-13T10:10:51;98752.31;;;29.50;35.37
21240;BME280;10778;48.962;9.018;2023-10-13T10:13:34;98757.03;;;28.60;36.84
21240;BME280;10778;48.962;9.018;2023-10-13T10:16:10;98756.56;;;28.84;38.70
21240;BME280;10778;48.962;9.018;2023-10-13T10:18:41;98751.63;;;28.55;36.86
21240;BME280;10778;48.962;9.018;2023-10-13T10:21:07;98747.69;;;29.09;36.25
21240;BME280;10778;48.962;9.018;2023-10-13T10:23:37;98746.22;;;28.65;36.75
21240;BME280;10778;48.962;9.018;2023-10-13T10:26:13;98742.50;;;28.82;37.31
21240;BME280;10778;48.962;9.018;2023-10-13T10:28:57;98734.66;;;28.80;35.64
21240;BME280;10778;48.962;9.018;2023-10-13T10:31:31;98737.84;;;28.72;36.76
21240;BME280;10778;48.962;9.018;2023-10-13T10:34:11;98735.78;;;29.36;35.94
21240;BME280;10778;48.962;9.018;2023-10-13T10:36:38;98736.84;;;28.99;36.22
21240;BME280;10778;48.962;9.018;2023-10-13T10:39:08;98721.13;;;29.06;36.29
21240;BME280;10778;48.962;9.018;2023-10-13T10:41:37;98712.50;;;29.30;36.21
21240;BME280;10778;48.962;9.018;2023-10-13T10:44:10;98711.13;;;29.12;35.96
21240;BME280;10778;48.962;9.018;2023-10-13T10:46:41;98713.03;;;29.12;36.25
21240;BME280;10778;48.962;9.018;2023-10-13T10:49:20;98706.25;;;29.56;35.32
21240;BME280;10778;48.962;9.018;2023-10-13T10:51:59;98701.59;;;29.77;35.15
21240;BME280;10778;48.962;9.018;2023-10-13T10:54:30;98702.19;;;28.96;36.83
21240;BME280;10778;48.962;9.018;2023-10-13T10:56:59;98707.81;;;28.74;36.37
21240;BME280;10778;48.962;9.018;2023-10-13T10:59:38;98702.03;;;28.34;38.05
21240;BME280;10778;48.962;9.018;2023-10-13T11:02:06;98691.25;;;28.49;36.94
21240;BME280;10778;48.962;9.018;2023-10-13T11:04:33;98691.25;;;28.54;37.38
21240;BME280;10778;48.962;9.018;2023-10-13T11:07:22;98689.88;;;28.47;37.24
21240;BME280;10778;48.962;9.018;2023-10-13T11:09:49;98691.03;;;28.72;38.23
21240;BME280;10778;48.962;9.018;2023-10-13T11:12:19;98679.88;;;28.42;36.32
21240;BME280;10778;48.962;9.018;2023-10-13T11:15:03;98675.91;;;28.81;37.15
21240;BME280;10778;48.962;9.018;2023-10-13T11:17:32;98666.97;;;29.17;36.15
21240;BME280;10778;48.962;9.018;2023-10-13T11:20:10;98666.69;;;29.29;35.77
21240;BME280;10778;48.962;9.018;2023-10-13T11:22:46;98652.84;;;28.68;35.59
21240;BME280;10778;48.962;9.018;2023-10-13T11:25:25;98651.78;;;28.64;35.96
21240;BME280;10778;48.962;9.018;2023-10-13T11:28:15;98647.75;;;28.82;36.67
21240;BME280;10778;48.962;9.018;2023-10-13T11:30:54;98639.56;;;28.66;34.83
21240;BME280;10778;48.962;9.018;2023-10-13T11:33:25;98639.59;;;28.72;36.16
21240;BME280;10778;48.962;9.018;2023-10-13T11:35:55;98643.66;;;28.79;35.92
21240;BME280;10778;48.962;9.018;2023-10-13T11:38:29;98638.50;;;28.78;34.17
21240;BME280;10778;48.962;9.018;2023-10-13T11:41:08;98639.09;;;29.06;34.04
21240;BME280;10778;48.962;9.018;2023-10-13T11:43:39;98635.81;;;28.67;34.45
21240;BME280;10778;48.962;9.018;2023-10-13T11:46:12;98632.03;;;28.94;33.39
21240;BME280;10778;48.962;9.018;2023-10-13T11:48:42;98630.94;;;29.16;34.40
21240;BME280;10778;48.962;9.018;2023-10-13T11:51:10;98627.16;;;29.28;34.00
21240;BME280;10778;48.962;9.018;2023-10-13T11:53:44;98622.50;;;29.64;33.94
21240;BME280;10778;48.962;9.018;2023-10-13T11:56:10;98624.47;;;28.91;34.98
21240;BME280;10778;48.962;9.018;2023-10-13T11:58:37;98625.72;;;28.27;34.64
21240;BME280;10778;48.962;9.018;2023-10-13T12:01:04;98617.50;;;28.06;35.25
21240;BME280;10778;48.962;9.018;2023-10-13T12:03:39;98620.06;;;28.49;33.74
21240;BME280;10778;48.962;9.018;2023-10-13T12:06:24;98619.78;;;28.30;34.43
21240;BME280;10778;48.962;9.018;2023-10-13T12:09:04;98604.91;;;28.48;33.22
21240;BME280;10778;48.962;9.018;2023-10-13T12:11:46;98599.53;;;28.58;33.61
21240;BME280;10778;48.962;9.018;2023-10-13T12:14:18;98590.06;;;29.02;32.94
21240;BME280;10778;48.962;9.018;2023-10-13T12:16:48;98583.84;;;29.02;32.80
21240;BME280;10778;48.962;9.018;2023-10-13T12:19:19;98580.59;;;28.68;34.28
21240;BME280;10778;48.962;9.018;2023-10-13T12:21:53;98582.72;;;29.13;33.94
21240;BME280;10778;48.962;9.018;2023-10-13T12:24:23;98568.97;;;28.94;33.13
21240;BME280;10778;48.962;9.018;2023-10-13T12:27:05;98578.69;;;29.10;32.74
21240;BME280;10778;48.962;9.018;2023-10-13T12:29:53;98567.84;;;29.05;32.52
21240;BME280;10778;48.962;9.018;2023-10-13T12:32:19;98562.06;;;29.59;32.29
21240;BME280;10778;48.962;9.018;2023-10-13T12:34:56;98551.38;;;29.78;32.69
21240;BME280;10778;48.962;9.018;2023-10-13T12:37:24;98552.31;;;29.58;32.61
21240;BME280;10778;48.962;9.018;2023-10-13T12:40:18;98558.84;;;29.31;31.00
21240;BME280;10778;48.962;9.018;2023-10-13T12:43:06;98547.50;;;29.29;31.61
21240;BME280;10778;48.962;9.018;2023-10-13T12:45:51;98540.22;;;29.85;30.95
21240;BME280;10778;48.962;9.018;2023-10-13T12:48:37;98541.53;;;29.92;30.75
21240;BME280;10778;48.962;9.018;2023-10-13T12:51:22;98549.44;;;29.89;31.67
21240;BME280;10778;48.962;9.018;2023-10-13T12:53:55;98540.16;;;30.05;31.18
21240;BME280;10778;48.962;9.018;2023-10-13T12:56:21;98540.59;;;30.23;31.08
21240;BME280;10778;48.962;9.018;2023-10-13T12:58:54;98541.06;;;30.30;30.79
21240;BME280;10778;48.962;9.018;2023-10-13T13:01:25;98538.69;;;30.58;30.04
21240;BME280;10778;48.962;9.018;2023-10-13T13:03:52;98521.50;;;30.33;30.98
21240;BME280;10778;48.962;9.018;2023-10-13T13:06:24;98523.22;;;30.19;32.41
21240;BME280;10778;48.962;9.018;2023-10-13T13:08:57;98522.13;;;30.20;30.10
21240;BME280;10778;48.962;9.018;2023-10-13T13:11:24;98522.91;;;30.60;30.53
21240;BME280;10778;48.962;9.018;2023-10-13T13:13:50;98516.47;;;30.86;30.81
21240;BME280;10778;48.962;9.018;2023-10-13T13:16:18;98519.97;;;30.22;31.37
21240;BME280;10778;48.962;9.018;2023-10-13T13:18:45;98517.66;;;30.40;31.56
21240;BME280;10778;48.962;9.018;2023-10-13T13:21:11;98505.50;;;30.67;30.52
21240;BME280;10778;48.962;9.018;2023-10-13T13:23:55;98505.22;;;30.68;30.88
21240;BME280;10778;48.962;9.018;2023-10-13T13:26:22;98506.06;;;30.93;30.36
21240;BME280;10778;48.962;9.018;2023-10-13T13:28:49;98499.41;;;30.80;31.08
21240;BME280;10778;48.962;9.018;2023-10-13T13:31:18;98502.53;;;30.63;31.32
21240;BME280;10778;48.962;9.018;2023-10-13T13:33:44;98500.00;;;30.07;30.82
21240;BME280;10778;48.962;9.018;2023-10-13T13:36:11;98492.97;;;29.51;32.31